<?xml version="1.0" encoding="UTF-8" standalone="no" ?>
<gpx xmlns="http://www.topografix.com/GPX/1/1" xmlns:xsi="http://www.w3.org/2001/XMLSchema-instance" xsi:schemaLocation="http://www.topografix.com/GPX/1/1 http://www.topografix.com/GPX/1/1/gpx.xsd" version="1.1" creator="VisuGPX - https://www.visugpx.com">
  <metadata>
    <name>Rando LN</name>
  </metadata>
  <trk>
    <name><![CDATA[sauveterre-de-guyenne]]></name>
    <extensions>
      <line xmlns="http://www.topografix.com/GPX/gpx_style/0/2">
        <color>1eff00</color>
        <width>4</width>
      </line>
    </extensions>
    <trkseg>
      <trkpt lat="44.61798" lon="-0.08985">
        <ele>18.408</ele>
        <time>2020-11-24T22:20:20Z</time>
      </trkpt>
      <trkpt lat="44.61798" lon="-0.08985">
        <ele>18.408</ele>
        <time>2020-11-24T22:20:20Z</time>
      </trkpt>
      <trkpt lat="44.61798" lon="-0.08985">
        <ele>18.408</ele>
        <time>2020-11-24T22:20:20Z</time>
      </trkpt>
      <trkpt lat="44.61798" lon="-0.08985">
        <ele>18.408</ele>
        <time>2020-11-24T22:20:20Z</time>
      </trkpt>
      <trkpt lat="44.61798" lon="-0.08985">
        <ele>18.408</ele>
        <time>2020-11-24T22:20:20Z</time>
      </trkpt>
      <trkpt lat="44.61798" lon="-0.08985">
        <ele>18.408</ele>
        <time>2020-11-24T22:20:20Z</time>
      </trkpt>
      <trkpt lat="44.61798" lon="-0.08985">
        <ele>18.408</ele>
        <time>2020-11-24T22:20:20Z</time>
      </trkpt>
      <trkpt lat="44.61798" lon="-0.08985">
        <ele>18.408</ele>
        <time>2020-11-24T22:20:20Z</time>
      </trkpt>
      <trkpt lat="44.61798" lon="-0.08985">
        <ele>18.408</ele>
        <time>2020-11-24T22:20:20Z</time>
      </trkpt>
      <trkpt lat="44.61798" lon="-0.08985">
        <ele>18.408</ele>
        <time>2020-11-24T22:20:20Z</time>
      </trkpt>
      <trkpt lat="44.61798" lon="-0.08985">
        <ele>18.408</ele>
        <time>2020-11-24T22:20:20Z</time>
      </trkpt>
      <trkpt lat="44.61828" lon="-0.08999">
        <ele>18.984</ele>
        <time>2017-03-28T17:23:38Z</time>
      </trkpt>
      <trkpt lat="44.6184" lon="-0.09106">
        <ele>25.489</ele>
        <time>2017-03-28T17:23:58Z</time>
      </trkpt>
      <trkpt lat="44.61901" lon="-0.09327">
        <ele>38.289</ele>
        <time>2017-03-28T17:24:18Z</time>
      </trkpt>
      <trkpt lat="44.61909" lon="-0.09629">
        <ele>46.191</ele>
        <time>2017-03-28T17:24:38Z</time>
      </trkpt>
      <trkpt lat="44.6188" lon="-0.09754">
        <ele>47.893</ele>
        <time>2017-03-28T17:24:58Z</time>
      </trkpt>
      <trkpt lat="44.61866" lon="-0.09936">
        <ele>52.014</ele>
        <time>2017-03-28T17:25:18Z</time>
      </trkpt>
      <trkpt lat="44.61988" lon="-0.09915">
        <ele>35.37</ele>
        <time>2017-03-28T17:25:38Z</time>
      </trkpt>
      <trkpt lat="44.62022" lon="-0.10044">
        <ele>25.312</ele>
        <time>2017-03-28T17:25:58Z</time>
      </trkpt>
      <trkpt lat="44.62081" lon="-0.10099">
        <ele>17.275</ele>
        <time>2017-03-28T17:26:18Z</time>
      </trkpt>
      <trkpt lat="44.62153" lon="-0.10134">
        <ele>17.728</ele>
        <time>2017-03-28T17:26:38Z</time>
      </trkpt>
      <trkpt lat="44.62202" lon="-0.10112">
        <ele>19.52</ele>
        <time>2017-03-28T17:26:58Z</time>
      </trkpt>
      <trkpt lat="44.62217" lon="-0.10157">
        <ele>19.808</ele>
        <time>2017-03-28T17:27:18Z</time>
      </trkpt>
      <trkpt lat="44.62288" lon="-0.10093">
        <ele>28.893</ele>
        <time>2017-03-28T17:27:38Z</time>
      </trkpt>
      <trkpt lat="44.62315" lon="-0.10086">
        <ele>30.968</ele>
        <time>2017-03-28T17:27:58Z</time>
      </trkpt>
      <trkpt lat="44.6235" lon="-0.10031">
        <ele>37.298</ele>
        <time>2017-03-28T17:28:18Z</time>
      </trkpt>
      <trkpt lat="44.62399" lon="-0.09932">
        <ele>44.22</ele>
        <time>2017-03-28T17:28:38Z</time>
      </trkpt>
      <trkpt lat="44.6248" lon="-0.09895">
        <ele>50.632</ele>
        <time>2017-03-28T17:28:58Z</time>
      </trkpt>
      <trkpt lat="44.62501" lon="-0.10046">
        <ele>48.553</ele>
        <time>2017-03-28T17:29:18Z</time>
      </trkpt>
      <trkpt lat="44.62558" lon="-0.10138">
        <ele>49.339</ele>
        <time>2017-03-28T17:29:38Z</time>
      </trkpt>
      <trkpt lat="44.62639" lon="-0.1032">
        <ele>46.981</ele>
        <time>2017-03-28T17:29:58Z</time>
      </trkpt>
      <trkpt lat="44.62663" lon="-0.10303">
        <ele>49.099</ele>
        <time>2017-03-28T17:30:18Z</time>
      </trkpt>
      <trkpt lat="44.62792" lon="-0.10185">
        <ele>53.807</ele>
        <time>2017-03-28T17:30:38Z</time>
      </trkpt>
      <trkpt lat="44.62828" lon="-0.10132">
        <ele>53.427</ele>
        <time>2017-03-28T17:30:58Z</time>
      </trkpt>
      <trkpt lat="44.62911" lon="-0.10065">
        <ele>48.208</ele>
        <time>2017-03-28T17:31:18Z</time>
      </trkpt>
      <trkpt lat="44.62899" lon="-0.10007">
        <ele>49.715</ele>
        <time>2017-03-28T17:31:38Z</time>
      </trkpt>
      <trkpt lat="44.6301" lon="-0.09956">
        <ele>48.83</ele>
        <time>2017-03-28T17:31:58Z</time>
      </trkpt>
      <trkpt lat="44.63079" lon="-0.09908">
        <ele>46.38</ele>
        <time>2017-03-28T17:32:18Z</time>
      </trkpt>
      <trkpt lat="44.63149" lon="-0.09887">
        <ele>50.892</ele>
        <time>2017-03-28T17:32:38Z</time>
      </trkpt>
      <trkpt lat="44.63207" lon="-0.09911">
        <ele>52.144</ele>
        <time>2017-03-28T17:32:58Z</time>
      </trkpt>
      <trkpt lat="44.63265" lon="-0.09893">
        <ele>50.925</ele>
        <time>2017-03-28T17:33:18Z</time>
      </trkpt>
      <trkpt lat="44.6334" lon="-0.09902">
        <ele>44.841</ele>
        <time>2017-03-28T17:33:38Z</time>
      </trkpt>
      <trkpt lat="44.63421" lon="-0.09889">
        <ele>46.183</ele>
        <time>2017-03-28T17:33:58Z</time>
      </trkpt>
      <trkpt lat="44.63457" lon="-0.09895">
        <ele>46.886</ele>
        <time>2017-03-28T17:34:18Z</time>
      </trkpt>
      <trkpt lat="44.63572" lon="-0.09883">
        <ele>48.96</ele>
        <time>2017-03-28T17:34:38Z</time>
      </trkpt>
      <trkpt lat="44.63631" lon="-0.09893">
        <ele>51.426</ele>
        <time>2017-03-28T17:34:58Z</time>
      </trkpt>
      <trkpt lat="44.63824" lon="-0.09795">
        <ele>57.908</ele>
        <time>2017-03-28T17:35:18Z</time>
      </trkpt>
      <trkpt lat="44.63839" lon="-0.09747">
        <ele>58.364</ele>
        <time>2017-03-28T17:35:38Z</time>
      </trkpt>
      <trkpt lat="44.63841" lon="-0.097">
        <ele>57.079</ele>
        <time>2017-03-28T17:35:58Z</time>
      </trkpt>
      <trkpt lat="44.63868" lon="-0.09649">
        <ele>54.739</ele>
        <time>2017-03-28T17:36:18Z</time>
      </trkpt>
      <trkpt lat="44.63934" lon="-0.09597">
        <ele>50.811</ele>
        <time>2017-03-28T17:36:38Z</time>
      </trkpt>
      <trkpt lat="44.63989" lon="-0.09567">
        <ele>54.863</ele>
        <time>2017-03-28T17:36:58Z</time>
      </trkpt>
      <trkpt lat="44.6397" lon="-0.09496">
        <ele>58.374</ele>
        <time>2017-03-28T17:37:18Z</time>
      </trkpt>
      <trkpt lat="44.63996" lon="-0.09477">
        <ele>63.17</ele>
        <time>2017-03-28T17:37:38Z</time>
      </trkpt>
      <trkpt lat="44.6401" lon="-0.09408">
        <ele>71.662</ele>
        <time>2017-03-28T17:37:58Z</time>
      </trkpt>
      <trkpt lat="44.64062" lon="-0.09387">
        <ele>72.244</ele>
        <time>2017-03-28T17:38:18Z</time>
      </trkpt>
      <trkpt lat="44.64086" lon="-0.09423">
        <ele>69.105</ele>
        <time>2017-03-28T17:38:38Z</time>
      </trkpt>
      <trkpt lat="44.64128" lon="-0.09415">
        <ele>70.015</ele>
        <time>2017-03-28T17:38:58Z</time>
      </trkpt>
      <trkpt lat="44.64169" lon="-0.09453">
        <ele>63.508</ele>
        <time>2017-03-28T17:39:18Z</time>
      </trkpt>
      <trkpt lat="44.6419" lon="-0.09432">
        <ele>65.91</ele>
        <time>2017-03-28T17:39:38Z</time>
      </trkpt>
      <trkpt lat="44.64195" lon="-0.09305">
        <ele>68.055</ele>
        <time>2017-03-28T17:39:58Z</time>
      </trkpt>
      <trkpt lat="44.64181" lon="-0.09162">
        <ele>73.275</ele>
        <time>2017-03-28T17:40:18Z</time>
      </trkpt>
      <trkpt lat="44.64126" lon="-0.08881">
        <ele>77.617</ele>
        <time>2017-03-28T17:40:38Z</time>
      </trkpt>
      <trkpt lat="44.64111" lon="-0.08702">
        <ele>87.089</ele>
        <time>2017-03-28T17:40:58Z</time>
      </trkpt>
      <trkpt lat="44.64122" lon="-0.08668">
        <ele>86.48</ele>
        <time>2017-03-28T17:41:18Z</time>
      </trkpt>
      <trkpt lat="44.64415" lon="-0.08835">
        <ele>79.286</ele>
        <time>2017-03-28T17:41:38Z</time>
      </trkpt>
      <trkpt lat="44.64392" lon="-0.0869">
        <ele>82.398</ele>
        <time>2017-03-28T17:41:58Z</time>
      </trkpt>
      <trkpt lat="44.64483" lon="-0.08602">
        <ele>80.677</ele>
        <time>2017-03-28T17:42:18Z</time>
      </trkpt>
      <trkpt lat="44.64537" lon="-0.08535">
        <ele>78.561</ele>
        <time>2017-03-28T17:42:38Z</time>
      </trkpt>
      <trkpt lat="44.64541" lon="-0.08496">
        <ele>75.427</ele>
        <time>2017-03-28T17:42:58Z</time>
      </trkpt>
      <trkpt lat="44.64581" lon="-0.0855">
        <ele>76.708</ele>
        <time>2017-03-28T17:43:18Z</time>
      </trkpt>
      <trkpt lat="44.6469" lon="-0.08552">
        <ele>77.773</ele>
        <time>2017-03-28T17:43:38Z</time>
      </trkpt>
      <trkpt lat="44.64888" lon="-0.08496">
        <ele>78.978</ele>
        <time>2017-03-28T17:43:58Z</time>
      </trkpt>
      <trkpt lat="44.65012" lon="-0.08552">
        <ele>77.998</ele>
        <time>2017-03-28T17:44:18Z</time>
      </trkpt>
      <trkpt lat="44.65065" lon="-0.08546">
        <ele>80.33</ele>
        <time>2017-03-28T17:44:38Z</time>
      </trkpt>
      <trkpt lat="44.65067" lon="-0.08346">
        <ele>78.362</ele>
        <time>2017-03-28T17:44:58Z</time>
      </trkpt>
      <trkpt lat="44.65083" lon="-0.08228">
        <ele>74.263</ele>
        <time>2017-03-28T17:45:18Z</time>
      </trkpt>
      <trkpt lat="44.65102" lon="-0.08117">
        <ele>72.599</ele>
        <time>2017-03-28T17:45:38Z</time>
      </trkpt>
      <trkpt lat="44.65126" lon="-0.08003">
        <ele>75.511</ele>
        <time>2017-03-28T17:45:58Z</time>
      </trkpt>
      <trkpt lat="44.65144" lon="-0.07872">
        <ele>79.235</ele>
        <time>2017-03-28T17:46:18Z</time>
      </trkpt>
      <trkpt lat="44.65196" lon="-0.0772">
        <ele>85.186</ele>
        <time>2017-03-28T17:46:38Z</time>
      </trkpt>
      <trkpt lat="44.65276" lon="-0.07604">
        <ele>83.514</ele>
        <time>2017-03-28T17:46:58Z</time>
      </trkpt>
      <trkpt lat="44.65335" lon="-0.07576">
        <ele>81.008</ele>
        <time>2017-03-28T17:47:18Z</time>
      </trkpt>
      <trkpt lat="44.65438" lon="-0.07572">
        <ele>80.489</ele>
        <time>2017-03-28T17:47:38Z</time>
      </trkpt>
      <trkpt lat="44.65502" lon="-0.07527">
        <ele>78.934</ele>
        <time>2017-03-28T17:47:58Z</time>
      </trkpt>
      <trkpt lat="44.65586" lon="-0.0773">
        <ele>76.014</ele>
        <time>2017-03-28T17:48:18Z</time>
      </trkpt>
      <trkpt lat="44.65639" lon="-0.07786">
        <ele>76.086</ele>
        <time>2017-03-28T17:48:38Z</time>
      </trkpt>
      <trkpt lat="44.65645" lon="-0.07812">
        <ele>75.798</ele>
        <time>2017-03-28T17:48:58Z</time>
      </trkpt>
      <trkpt lat="44.65702" lon="-0.07825">
        <ele>69.749</ele>
        <time>2017-03-28T17:49:18Z</time>
      </trkpt>
      <trkpt lat="44.65755" lon="-0.07836">
        <ele>66.835</ele>
        <time>2017-03-28T17:49:38Z</time>
      </trkpt>
      <trkpt lat="44.65822" lon="-0.07821">
        <ele>66.067</ele>
        <time>2017-03-28T17:49:58Z</time>
      </trkpt>
      <trkpt lat="44.65898" lon="-0.07855">
        <ele>62.172</ele>
        <time>2017-03-28T17:50:18Z</time>
      </trkpt>
      <trkpt lat="44.65947" lon="-0.07855">
        <ele>61.213</ele>
        <time>2017-03-28T17:50:38Z</time>
      </trkpt>
      <trkpt lat="44.65985" lon="-0.0793">
        <ele>60.214</ele>
        <time>2017-03-28T17:50:58Z</time>
      </trkpt>
      <trkpt lat="44.66025" lon="-0.07951">
        <ele>60.708</ele>
        <time>2017-03-28T17:51:18Z</time>
      </trkpt>
      <trkpt lat="44.66079" lon="-0.07896">
        <ele>60.593</ele>
        <time>2017-03-28T17:51:38Z</time>
      </trkpt>
      <trkpt lat="44.66127" lon="-0.07906">
        <ele>59.018</ele>
        <time>2017-03-28T17:51:58Z</time>
      </trkpt>
      <trkpt lat="44.66205" lon="-0.07958">
        <ele>58.998</ele>
        <time>2017-03-28T17:52:18Z</time>
      </trkpt>
      <trkpt lat="44.66317" lon="-0.07939">
        <ele>61.63</ele>
        <time>2017-03-28T17:52:38Z</time>
      </trkpt>
      <trkpt lat="44.66343" lon="-0.07806">
        <ele>64.772</ele>
        <time>2017-03-28T17:52:58Z</time>
      </trkpt>
      <trkpt lat="44.66353" lon="-0.07737">
        <ele>64.363</ele>
        <time>2017-03-28T17:53:18Z</time>
      </trkpt>
      <trkpt lat="44.66414" lon="-0.07722">
        <ele>64.879</ele>
        <time>2017-03-28T17:53:38Z</time>
      </trkpt>
      <trkpt lat="44.66588" lon="-0.07576">
        <ele>73.281</ele>
        <time>2017-03-28T17:53:58Z</time>
      </trkpt>
      <trkpt lat="44.66715" lon="-0.0758">
        <ele>75.582</ele>
        <time>2017-03-28T17:54:18Z</time>
      </trkpt>
      <trkpt lat="44.66713" lon="-0.0769">
        <ele>76.243</ele>
        <time>2017-03-28T17:54:38Z</time>
      </trkpt>
      <trkpt lat="44.66761" lon="-0.07782">
        <ele>77.517</ele>
        <time>2017-03-28T17:54:58Z</time>
      </trkpt>
      <trkpt lat="44.66863" lon="-0.08046">
        <ele>74.208</ele>
        <time>2017-03-28T17:55:18Z</time>
      </trkpt>
      <trkpt lat="44.66869" lon="-0.0822">
        <ele>68.194</ele>
        <time>2017-03-28T17:55:38Z</time>
      </trkpt>
      <trkpt lat="44.6689" lon="-0.08308">
        <ele>65.819</ele>
        <time>2017-03-28T17:55:58Z</time>
      </trkpt>
      <trkpt lat="44.66926" lon="-0.08406">
        <ele>61.529</ele>
        <time>2017-03-28T17:56:18Z</time>
      </trkpt>
      <trkpt lat="44.66933" lon="-0.08454">
        <ele>59.781</ele>
        <time>2017-03-28T17:56:38Z</time>
      </trkpt>
      <trkpt lat="44.67" lon="-0.08587">
        <ele>58.883</ele>
        <time>2017-03-28T17:56:58Z</time>
      </trkpt>
      <trkpt lat="44.67183" lon="-0.08763">
        <ele>55.144</ele>
        <time>2017-03-28T17:57:18Z</time>
      </trkpt>
      <trkpt lat="44.67205" lon="-0.08816">
        <ele>51.58</ele>
        <time>2017-03-28T17:57:38Z</time>
      </trkpt>
      <trkpt lat="44.67238" lon="-0.08962">
        <ele>46.182</ele>
        <time>2017-03-28T17:57:58Z</time>
      </trkpt>
      <trkpt lat="44.67267" lon="-0.09007">
        <ele>46.534</ele>
        <time>2017-03-28T17:58:18Z</time>
      </trkpt>
      <trkpt lat="44.67423" lon="-0.08902">
        <ele>41.855</ele>
        <time>2017-03-28T17:58:38Z</time>
      </trkpt>
      <trkpt lat="44.67425" lon="-0.08853">
        <ele>46.11</ele>
        <time>2017-03-28T17:58:58Z</time>
      </trkpt>
      <trkpt lat="44.67312" lon="-0.08574">
        <ele>54.608</ele>
        <time>2017-03-28T17:59:18Z</time>
      </trkpt>
      <trkpt lat="44.67313" lon="-0.08531">
        <ele>56.659</ele>
        <time>2017-03-28T17:59:38Z</time>
      </trkpt>
      <trkpt lat="44.67415" lon="-0.0837">
        <ele>62.854</ele>
        <time>2017-03-28T17:59:58Z</time>
      </trkpt>
      <trkpt lat="44.67457" lon="-0.08434">
        <ele>63.294</ele>
        <time>2017-03-28T18:00:18Z</time>
      </trkpt>
      <trkpt lat="44.67483" lon="-0.08445">
        <ele>64.346</ele>
        <time>2017-03-28T18:00:38Z</time>
      </trkpt>
      <trkpt lat="44.67618" lon="-0.08428">
        <ele>57.768</ele>
        <time>2017-03-28T18:00:58Z</time>
      </trkpt>
      <trkpt lat="44.67644" lon="-0.08443">
        <ele>56.389</ele>
        <time>2017-03-28T18:01:18Z</time>
      </trkpt>
      <trkpt lat="44.67693" lon="-0.08535">
        <ele>52.775</ele>
        <time>2017-03-28T18:01:38Z</time>
      </trkpt>
      <trkpt lat="44.67797" lon="-0.08544">
        <ele>55.947</ele>
        <time>2017-03-28T18:01:58Z</time>
      </trkpt>
      <trkpt lat="44.67879" lon="-0.08617">
        <ele>53.819</ele>
        <time>2017-03-28T18:02:18Z</time>
      </trkpt>
      <trkpt lat="44.67899" lon="-0.08662">
        <ele>53.009</ele>
        <time>2017-03-28T18:02:38Z</time>
      </trkpt>
      <trkpt lat="44.67922" lon="-0.08683">
        <ele>52.319</ele>
        <time>2017-03-28T18:02:58Z</time>
      </trkpt>
      <trkpt lat="44.68024" lon="-0.08638">
        <ele>52.408</ele>
        <time>2017-03-28T18:03:18Z</time>
      </trkpt>
      <trkpt lat="44.68131" lon="-0.08619">
        <ele>45.257</ele>
        <time>2017-03-28T18:03:38Z</time>
      </trkpt>
      <trkpt lat="44.68316" lon="-0.08608">
        <ele>52.782</ele>
        <time>2017-03-28T18:03:58Z</time>
      </trkpt>
      <trkpt lat="44.68605" lon="-0.09011">
        <ele>72.222</ele>
        <time>2017-03-28T18:04:18Z</time>
      </trkpt>
      <trkpt lat="44.68721" lon="-0.08876">
        <ele>73.554</ele>
        <time>2017-03-28T18:04:38Z</time>
      </trkpt>
      <trkpt lat="44.68901" lon="-0.08797">
        <ele>56.386</ele>
        <time>2017-03-28T18:04:58Z</time>
      </trkpt>
      <trkpt lat="44.69005" lon="-0.0873">
        <ele>55.347</ele>
        <time>2017-03-28T18:05:18Z</time>
      </trkpt>
      <trkpt lat="44.69028" lon="-0.08784">
        <ele>55.013</ele>
        <time>2017-03-28T18:05:38Z</time>
      </trkpt>
      <trkpt lat="44.69036" lon="-0.08866">
        <ele>57.015</ele>
        <time>2017-03-28T18:05:58Z</time>
      </trkpt>
      <trkpt lat="44.69049" lon="-0.08842">
        <ele>57.436</ele>
        <time>2017-03-28T18:06:18Z</time>
      </trkpt>
      <trkpt lat="44.69286" lon="-0.0858">
        <ele>76.617</ele>
        <time>2017-03-28T18:08:38Z</time>
      </trkpt>
    </trkseg>
  </trk>
</gpx>